Time;durP1;ratioP1;P1;durP2;ratioP2;P2;SDS_P1;SDS_P2;PMS_P1;PMS_P2;Temp;Humidity;BMP_temperature;BMP_pressure;BME280_temperature;BME280_humidity;BME280_pressure;Samples;Min_cycle;Max_cycle;Signal;HPM_P1;HPM_P2
2022/06/10 00:00:40;;;;;;;;;;;;;;;23.15;44.43;101479.44;2100306;28;863;-56
2022/06/10 00:01:41;;;;;;;;;;;;;;;23.15;45.03;101479.44;2100332;28;795;-56
2022/06/10 00:02:44;;;;;;;;;;;;;;;23.15;45.15;101482.16;2100295;28;834;-56
2022/06/10 00:03:44;;;;;;;;;;;;;;;23.15;45.08;101475.88;2100232;28;864;-56
2022/06/10 00:04:44;;;;;;;;;;;;;;;23.14;44.33;101477.69;2090215;28;2421;-56
2022/06/10 00:05:47;;;;;;;;;;;;;;;23.12;44.92;101474.16;2091395;28;766;-56
2022/06/10 00:06:47;;;;;;;;;;;;;;;23.12;44.61;101479.56;2091910;28;816;-56
2022/06/10 00:07:48;;;;;;;;;;;;;;;23.12;45.19;101479.56;2090985;28;1957;-56
2022/06/10 00:08:48;;;;;;;;;;;;;;;23.12;45.38;101478.69;2091918;28;870;-56
2022/06/10 00:09:48;;;;;;;;;;;;;;;23.12;45.35;101482.25;2091911;28;922;-56
2022/06/10 00:10:50;;;;;;;;;;;;;;;23.12;45.33;101476.84;2091895;28;684;-56
2022/06/10 00:11:50;;;;;;;;;;;;;;;23.12;44.96;101478.69;2091916;28;1215;-56
2022/06/10 00:12:50;;;;;;;;;;;;;;;23.13;44.92;101484.00;2091901;28;850;-56
2022/06/10 00:13:50;;;;;;;;;;;;;;;23.11;44.99;101483.19;2091917;28;798;-54
2022/06/10 00:14:51;;;;;;;;;;;;;;;23.12;45.54;101484.09;2091906;28;1048;-55
2022/06/10 00:15:53;;;;;;;;;;;;;;;23.12;45.12;101473.28;2091911;28;672;-56
2022/06/10 00:16:53;;;;;;;;;;;;;;;23.10;44.90;101479.63;2091921;28;842;-55
2022/06/10 00:17:53;;;;;;;;;;;;;;;23.09;44.98;101485.97;2091880;28;779;-56
2022/06/10 00:18:53;;;;;;;;;;;;;;;23.10;44.80;101478.72;2091868;28;1047;-56
2022/06/10 00:19:53;;;;;;;;;;;;;;;23.09;45.51;101480.56;2091921;28;879;-54
2022/06/10 00:20:54;;;;;;;;;;;;;;;23.08;44.95;101481.47;2091201;28;2358;-55
2022/06/10 00:21:54;;;;;;;;;;;;;;;23.06;45.46;101479.75;2091841;28;1043;-56
2022/06/10 00:22:55;;;;;;;;;;;;;;;23.05;45.85;101472.59;2091899;28;847;-56
2022/06/10 00:23:55;;;;;;;;;;;;;;;23.06;45.20;101479.75;2091842;28;834;-56
2022/06/10 00:24:55;;;;;;;;;;;;;;;23.06;45.31;101477.06;2091764;28;977;-55
2022/06/10 00:25:55;;;;;;;;;;;;;;;23.06;45.90;101479.75;2091782;28;783;-56
2022/06/10 00:26:55;;;;;;;;;;;;;;;23.06;45.89;101474.34;2091778;28;878;-56
2022/06/10 00:27:56;;;;;;;;;;;;;;;23.06;45.93;101477.06;2091573;28;1906;-56
2022/06/10 00:28:58;;;;;;;;;;;;;;;23.03;45.72;101471.75;2082890;28;1341;-56
2022/06/10 00:29:59;;;;;;;;;;;;;;;23.03;46.01;101474.44;2083124;28;1032;-56
2022/06/10 00:30:59;;;;;;;;;;;;;;;23.02;45.59;101476.28;2091782;28;863;-55
2022/06/10 00:31:59;;;;;;;;;;;;;;;23.02;45.91;101470.88;2091772;28;843;-56
2022/06/10 00:32:59;;;;;;;;;;;;;;;23.02;45.32;101475.38;2091759;28;953;-56
2022/06/10 00:34:00;;;;;;;;;;;;;;;23.00;45.99;101480.84;2091783;28;941;-56
2022/06/10 00:35:00;;;;;;;;;;;;;;;23.01;45.96;101479.94;2091723;28;978;-56
2022/06/10 00:36:01;;;;;;;;;;;;;;;23.02;45.45;101479.00;2091735;28;913;-56
2022/06/10 00:37:02;;;;;;;;;;;;;;;23.02;45.34;101475.38;2091685;28;1199;-56
2022/06/10 00:38:03;;;;;;;;;;;;;;;23.01;45.63;101473.63;2090925;28;2341;-56
2022/06/10 00:39:03;;;;;;;;;;;;;;;23.01;45.71;101479.03;2091687;28;850;-56
2022/06/10 00:40:05;;;;;;;;;;;;;;;23.01;46.06;101477.22;2091669;28;957;-56
2022/06/10 00:41:05;;;;;;;;;;;;;;;22.99;46.12;101472.78;2091695;28;972;-56
2022/06/10 00:42:06;;;;;;;;;;;;;;;23.00;46.28;101472.75;2091666;28;766;-56
2022/06/10 00:43:11;;;;;;;;;;;;;;;22.99;45.55;101480.91;2091657;28;768;-56
2022/06/10 00:44:30;;;;;;;;;;;;;;;22.98;45.85;101471.91;2091679;28;985;-56
2022/06/10 00:45:49;;;;;;;;;;;;;;;22.98;46.11;101476.41;2091683;28;924;-55
2022/06/10 00:46:49;;;;;;;;;;;;;;;22.94;46.37;101476.56;2091658;28;969;-56
2022/06/10 00:47:49;;;;;;;;;;;;;;;22.95;45.96;101478.31;2091577;28;1971;-56
2022/06/10 00:49:01;;;;;;;;;;;;;;;22.97;46.23;101478.25;2082745;28;1032;-56
2022/06/10 00:50:13;;;;;;;;;;;;;;;22.97;46.29;101475.56;2084409;28;760;-56
2022/06/10 00:51:18;;;;;;;;;;;;;;;22.97;46.27;101474.66;2091628;28;980;-56
2022/06/10 00:52:29;;;;;;;;;;;;;;;22.95;46.29;101481.03;2091709;28;819;-56
2022/06/10 00:53:32;;;;;;;;;;;;;;;22.95;45.49;101475.63;2091512;28;1231;-56
2022/06/10 00:54:37;;;;;;;;;;;;;;;22.94;45.56;101479.25;2090897;28;2492;-55
2022/06/10 00:55:37;;;;;;;;;;;;;;;22.94;46.32;101479.25;2091703;28;933;-56
2022/06/10 00:56:40;;;;;;;;;;;;;;;22.93;46.33;101477.50;2091554;28;1140;-56
2022/06/10 00:57:42;;;;;;;;;;;;;;;22.94;46.18;101484.66;2091561;28;922;-55
2022/06/10 00:58:46;;;;;;;;;;;;;;;22.95;46.32;101480.13;2091590;28;827;-56
2022/06/10 00:59:46;;;;;;;;;;;;;;;22.94;45.72;101481.97;2091519;28;894;-56
2022/06/10 01:00:46;;;;;;;;;;;;;;;22.94;46.42;101484.66;2091517;28;1009;-55
2022/06/10 01:01:46;;;;;;;;;;;;;;;22.93;45.52;101488.31;2091544;28;1024;-56
2022/06/10 01:02:47;;;;;;;;;;;;;;;22.93;46.29;101487.41;2091567;28;977;-56
2022/06/10 01:03:47;;;;;;;;;;;;;;;22.92;46.31;101485.63;2091541;28;982;-56
2022/06/10 01:04:48;;;;;;;;;;;;;;;22.92;45.80;101481.13;2082649;28;891;-56
2022/06/10 01:05:48;;;;;;;;;;;;;;;22.93;45.52;101485.59;2082679;28;870;-56
2022/06/10 01:06:48;;;;;;;;;;;;;;;22.93;46.34;101479.28;2082626;28;1028;-56
2022/06/10 01:07:50;;;;;;;;;;;;;;;22.93;45.88;101477.50;2082634;28;1894;-56
2022/06/10 01:28:13;;;;;;;;;;;;;;;22.87;45.65;101474.09;2098670;28;1337;-56
2022/06/10 01:29:20;;;;;;;;;;;;;;;22.85;45.83;101476.88;2097800;28;2662;-57
2022/06/10 01:30:38;;;;;;;;;;;;;;;22.85;45.88;101476.88;2098613;28;772;-57
2022/06/10 01:31:42;;;;;;;;;;;;;;;22.85;46.73;101478.66;2098670;28;875;-57
2022/06/10 01:32:57;;;;;;;;;;;;;;;22.84;45.92;101477.78;2098591;28;1040;-57
2022/06/10 01:34:05;;;;;;;;;;;;;;;22.86;46.13;101483.13;2098598;28;894;-57
2022/06/10 01:35:26;;;;;;;;;;;;;;;22.86;46.64;101469.63;2098603;28;977;-57
2022/06/10 01:36:32;;;;;;;;;;;;;;;22.85;45.85;101474.16;2098606;28;807;-57
2022/06/10 01:37:38;;;;;;;;;;;;;;;22.85;45.78;101474.16;2097814;28;835;-58
2022/06/10 01:38:43;;;;;;;;;;;;;;;22.84;46.59;101472.38;2098265;28;810;-58
2022/06/10 01:39:53;;;;;;;;;;;;;;;22.84;45.89;101472.38;2098816;28;897;-58
2022/06/10 01:40:59;;;;;;;;;;;;;;;22.84;46.68;101474.19;2098816;28;771;-58
2022/06/10 01:41:59;;;;;;;;;;;;;;;22.83;45.92;101467.91;2098797;28;838;-57
2022/06/10 01:43:02;;;;;;;;;;;;;;;22.84;46.17;101476.91;2098781;28;842;-58
2022/06/10 01:44:09;;;;;;;;;;;;;;;22.81;45.79;101472.50;2098082;28;1105;-58
2022/06/10 01:45:13;;;;;;;;;;;;;;;22.82;45.97;101476.97;2097289;28;2650;-58
2022/06/10 01:46:16;;;;;;;;;;;;;;;22.83;45.97;101477.81;2090484;28;921;-58
2022/06/10 01:47:25;;;;;;;;;;;;;;;22.82;45.93;101474.25;2090451;28;1906;-58
2022/06/10 01:48:27;;;;;;;;;;;;;;;22.83;45.81;101472.41;2090490;28;775;-58
2022/06/10 01:49:34;;;;;;;;;;;;;;;22.83;46.08;101478.72;2090565;28;779;-58
2022/06/10 01:50:43;;;;;;;;;;;;;;;22.81;46.70;101469.78;2090455;28;985;-57
2022/06/10 01:51:53;;;;;;;;;;;;;;;22.83;46.52;101481.44;2090583;28;839;-58
2022/06/10 01:53:02;;;;;;;;;;;;;;;22.82;45.90;101470.66;2090446;28;838;-57
2022/06/10 01:54:06;;;;;;;;;;;;;;;22.83;46.18;101477.81;2090454;28;1016;-58
2022/06/10 01:55:11;;;;;;;;;;;;;;;22.81;45.93;101475.19;2090442;28;795;-58
2022/06/10 01:56:41;;;;;;;;;;;;;;;22.82;46.65;101482.34;2090417;28;772;-58
2022/06/10 01:57:55;;;;;;;;;;;;;;;22.79;46.02;101472.53;2090382;28;1017;-58
2022/06/10 01:59:16;;;;;;;;;;;;;;;22.80;46.05;101478.81;2090418;28;969;-58
2022/06/10 02:00:18;;;;;;;;;;;;;;;22.82;46.54;101481.47;2089445;28;995;-58
2022/06/10 02:01:20;;;;;;;;;;;;;;;22.82;46.82;101478.75;2089346;28;1305;-58
2022/06/10 02:02:25;;;;;;;;;;;;;;;22.80;45.90;101471.59;2096772;28;2718;-58
2022/06/10 02:03:51;;;;;;;;;;;;;;;22.81;46.70;101469.78;2089464;28;838;-58
2022/06/10 02:04:55;;;;;;;;;;;;;;;22.80;46.77;101468.88;2085656;28;1029;-58
2022/06/10 02:05:59;;;;;;;;;;;;;;;22.80;46.26;101468.03;2089437;28;870;-58
2022/06/10 02:07:01;;;;;;;;;;;;;;;22.79;45.97;101466.25;2089385;28;1894;-58
2022/06/10 02:08:06;;;;;;;;;;;;;;;22.80;46.35;101468.88;2089420;28;792;-58
2022/06/10 02:09:08;;;;;;;;;;;;;;;22.79;45.89;101469.81;2089432;28;985;-58
2022/06/10 02:10:13;;;;;;;;;;;;;;;22.80;46.77;101466.19;2089339;28;1412;-58
2022/06/10 02:11:15;;;;;;;;;;;;;;;22.79;46.82;101463.56;2089480;28;810;-58
2022/06/10 02:12:21;;;;;;;;;;;;;;;22.79;46.00;101469.81;2089368;28;890;-58
2022/06/10 02:13:25;;;;;;;;;;;;;;;22.79;46.76;101469.81;2081097;28;815;-58
2022/06/10 02:14:37;;;;;;;;;;;;;;;22.80;46.41;101468.88;2081500;28;934;-58
2022/06/10 02:15:46;;;;;;;;;;;;;;;22.80;46.87;101470.72;2089408;28;799;-58
2022/06/10 02:16:48;;;;;;;;;;;;;;;22.79;46.85;101469.81;2089297;28;914;-58
2022/06/10 02:17:51;;;;;;;;;;;;;;;22.77;46.50;101473.53;2089350;28;895;-58
2022/06/10 02:18:51;;;;;;;;;;;;;;;22.79;46.46;101474.34;2089343;28;2750;-58
2022/06/10 02:19:57;;;;;;;;;;;;;;;22.76;46.90;101469.06;2097539;28;1135;-58
2022/06/10 02:21:01;;;;;;;;;;;;;;;22.74;46.77;101471.78;2097592;28;914;-58
2022/06/10 02:22:04;;;;;;;;;;;;;;;22.76;45.97;101474.47;2097542;28;964;-58
2022/06/10 02:23:05;;;;;;;;;;;;;;;22.77;46.53;101478.94;2097554;28;945;-58
2022/06/10 02:24:14;;;;;;;;;;;;;;;22.76;46.59;101480.72;2097533;28;910;-57
2022/06/10 02:25:17;;;;;;;;;;;;;;;22.76;45.98;101475.31;2097487;28;1059;-58
2022/06/10 02:26:18;;;;;;;;;;;;;;;22.76;46.04;101472.63;2097397;28;2106;-58
2022/06/10 02:27:20;;;;;;;;;;;;;;;22.77;46.78;101471.69;2097224;28;1984;-58
2022/06/10 02:28:28;;;;;;;;;;;;;;;22.77;46.04;101476.22;2097551;28;929;-58
2022/06/10 02:29:34;;;;;;;;;;;;;;;22.78;46.41;101483.41;2097460;28;766;-58
2022/06/10 02:30:37;;;;;;;;;;;;;;;22.77;46.25;101476.22;2097503;28;1028;-58
2022/06/10 02:31:40;;;;;;;;;;;;;;;22.76;46.90;101480.72;2097374;28;1046;-58
2022/06/10 02:32:41;;;;;;;;;;;;;;;22.76;46.84;101474.47;2097400;28;778;-58
2022/06/10 02:33:42;;;;;;;;;;;;;;;22.75;46.57;101481.66;2097424;28;842;-58
2022/06/10 02:34:42;;;;;;;;;;;;;;;22.76;46.13;101479.84;2097433;28;881;-58
2022/06/10 02:35:45;;;;;;;;;;;;;;;22.75;46.64;101488.91;2097433;28;977;-58
2022/06/10 02:36:45;;;;;;;;;;;;;;;22.75;46.92;101486.19;2096510;28;2562;-57
2022/06/10 02:37:54;;;;;;;;;;;;;;;22.75;46.16;101489.75;2097254;28;1318;-57
2022/06/10 02:39:00;;;;;;;;;;;;;;;22.75;46.71;101488.91;2094538;28;885;-56
2022/06/10 02:40:00;;;;;;;;;;;;;;;22.74;46.02;101492.53;2092608;28;806;-57
2022/06/10 02:41:21;;;;;;;;;;;;;;;22.75;46.14;101488.91;2092664;28;796;-57
2022/06/10 02:42:34;;;;;;;;;;;;;;;22.76;46.88;101496.06;2075051;28;1164;-57
2022/06/10 02:43:48;;;;;;;;;;;;;;;22.76;46.77;101501.47;2075170;28;951;-57
2022/06/10 02:44:50;;;;;;;;;;;;;;;22.76;46.92;101496.06;2075129;28;898;-57
2022/06/10 02:46:11;;;;;;;;;;;;;;;22.76;46.95;101504.16;2075120;28;859;-57
2022/06/10 02:47:19;;;;;;;;;;;;;;;22.74;46.34;101498.78;2074598;28;1918;-57
2022/06/10 02:48:45;;;;;;;;;;;;;;;22.76;46.64;101502.34;2075103;28;944;-57
2022/06/10 02:49:46;;;;;;;;;;;;;;;22.76;46.44;101506.88;2073051;28;980;-57
2022/06/10 02:50:46;;;;;;;;;;;;;;;22.75;46.35;101499.69;2075096;28;800;-57
2022/06/10 02:51:47;;;;;;;;;;;;;;;22.76;46.95;101506.88;2075127;28;970;-57
2022/06/10 02:52:48;;;;;;;;;;;;;;;22.76;46.87;101512.28;2075075;28;788;-58
2022/06/10 02:53:48;;;;;;;;;;;;;;;22.74;46.12;101509.59;2075066;28;800;-57
2022/06/10 02:54:48;;;;;;;;;;;;;;;22.74;46.38;101512.28;2073999;28;2356;-57
2022/06/10 02:55:48;;;;;;;;;;;;;;;22.74;46.88;101517.69;2075100;28;1020;-57
2022/06/10 02:56:48;;;;;;;;;;;;;;;22.74;47.01;101519.53;2075056;28;969;-57
2022/06/10 03:02:04;;;;;;;;;;;;;;;22.74;46.50;101477.19;2075099;28;594;-57
2022/06/10 03:03:11;;;;;;;;;;;;;;;22.75;46.54;101478.09;2074994;28;772;-57
2022/06/10 03:04:25;;;;;;;;;;;;;;;22.75;47.01;101472.69;2075038;28;776;-58
2022/06/10 03:05:26;;;;;;;;;;;;;;;22.74;47.11;101460.13;2075048;28;1033;-57
2022/06/10 03:06:44;;;;;;;;;;;;;;;22.74;46.60;101462.81;2074949;28;825;-57
2022/06/10 03:07:44;;;;;;;;;;;;;;;22.75;47.01;101545.59;2074891;28;1957;-58
2022/06/10 03:08:50;;;;;;;;;;;;;;;22.75;46.21;101530.28;2074954;28;768;-57
2022/06/10 03:10:10;;;;;;;;;;;;;;;22.75;47.13;101516.78;2074958;28;918;-57
2022/06/10 03:11:10;;;;;;;;;;;;;;;22.74;46.82;101506.91;2073932;28;2570;-57
2022/06/10 03:12:21;;;;;;;;;;;;;;;22.75;47.06;101505.09;2074961;28;875;-57
2022/06/10 03:13:40;;;;;;;;;;;;;;;22.75;46.59;101502.41;2074885;28;1067;-57
2022/06/10 03:14:43;;;;;;;;;;;;;;;22.72;47.14;101500.66;2074946;28;1005;-57
2022/06/10 03:15:46;;;;;;;;;;;;;;;22.73;46.64;101509.66;2074931;28;941;-57
2022/06/10 03:16:46;;;;;;;;;;;;;;;22.73;46.30;101498.88;2074920;28;801;-57
2022/06/10 03:17:49;;;;;;;;;;;;;;;22.74;47.09;101500.63;2066690;28;792;-57
2022/06/10 03:18:52;;;;;;;;;;;;;;;22.74;47.24;101498.78;2067048;28;966;-58
2022/06/10 03:19:59;;;;;;;;;;;;;;;22.75;47.19;101505.97;2078207;28;962;-57
2022/06/10 03:21:07;;;;;;;;;;;;;;;22.74;46.63;101503.31;2092300;28;1040;-57
2022/06/10 03:22:26;;;;;;;;;;;;;;;22.74;46.31;101506.91;2092284;28;819;-57
2022/06/10 03:23:45;;;;;;;;;;;;;;;22.74;46.81;101506.03;2092292;28;866;-57
2022/06/10 03:24:55;;;;;;;;;;;;;;;22.74;47.07;101503.31;2092255;28;827;-57
2022/06/10 03:25:59;;;;;;;;;;;;;;;22.73;46.61;101504.25;2092257;28;965;-57
2022/06/10 03:27:03;;;;;;;;;;;;;;;22.71;46.61;101498.03;2092804;28;1937;-56
2022/06/10 03:28:14;;;;;;;;;;;;;;;22.73;46.90;101493.47;2093879;28;2206;-55
2022/06/10 03:29:33;;;;;;;;;;;;;;;22.74;46.89;101500.63;2092211;28;973;-55
2022/06/10 03:30:34;;;;;;;;;;;;;;;22.72;46.49;101500.66;2091519;28;858;-55
2022/06/10 03:31:36;;;;;;;;;;;;;;;22.73;46.80;101479.97;2091503;28;931;-55
2022/06/10 03:32:43;;;;;;;;;;;;;;;22.74;46.41;101493.41;2092165;28;988;-55
2022/06/10 03:33:53;;;;;;;;;;;;;;;22.75;47.21;101494.28;2092153;28;853;-54
2022/06/10 03:34:58;;;;;;;;;;;;;;;22.75;47.12;101492.47;2092102;28;923;-55
2022/06/10 03:36:02;;;;;;;;;;;;;;;22.75;47.05;101495.16;2092257;28;988;-55
2022/06/10 03:37:03;;;;;;;;;;;;;;;22.76;47.22;101504.16;2092153;28;926;-55
2022/06/10 03:38:04;;;;;;;;;;;;;;;22.75;47.07;101494.28;2092111;28;807;-55
2022/06/10 03:39:05;;;;;;;;;;;;;;;22.74;46.79;101493.41;2083219;28;1389;-55
2022/06/10 03:40:06;;;;;;;;;;;;;;;22.75;47.09;101489.75;2083244;28;847;-55
2022/06/10 03:41:06;;;;;;;;;;;;;;;22.76;47.22;101487.97;2092112;28;850;-54
2022/06/10 03:42:14;;;;;;;;;;;;;;;22.73;46.93;101491.63;2092132;28;966;-55
2022/06/10 03:43:15;;;;;;;;;;;;;;;22.73;46.90;101496.16;2083169;28;1269;-55
2022/06/10 03:44:16;;;;;;;;;;;;;;;22.71;47.01;101487.22;2083327;28;754;-55
2022/06/10 03:45:18;;;;;;;;;;;;;;;22.69;47.26;101495.34;2082540;28;2547;-54
2022/06/10 03:46:19;;;;;;;;;;;;;;;22.68;47.21;101493.59;2092053;28;780;-55
2022/06/10 03:47:22;;;;;;;;;;;;;;;22.68;47.32;101493.59;2091986;28;1905;-55
2022/06/10 03:48:24;;;;;;;;;;;;;;;22.67;46.93;101493.66;2092064;28;940;-55
2022/06/10 03:49:33;;;;;;;;;;;;;;;22.65;47.41;101494.59;2092028;28;953;-54
2022/06/10 03:50:38;;;;;;;;;;;;;;;22.64;46.76;101492.81;2091266;28;902;-55
2022/06/10 03:51:39;;;;;;;;;;;;;;;22.67;46.82;101499.06;2091843;28;985;-55
2022/06/10 03:52:40;;;;;;;;;;;;;;;22.67;46.96;101499.06;2091978;28;779;-55
2022/06/10 03:53:41;;;;;;;;;;;;;;;22.68;46.70;101499.00;2091993;28;837;-55
2022/06/10 03:54:41;;;;;;;;;;;;;;;22.68;47.48;101503.53;2083078;28;1013;-55
2022/06/10 03:55:41;;;;;;;;;;;;;;;22.67;47.22;101499.91;2083152;28;970;-54
2022/06/10 03:56:41;;;;;;;;;;;;;;;22.67;47.53;101501.75;2091860;28;800;-55
2022/06/10 03:57:42;;;;;;;;;;;;;;;22.67;46.68;101499.91;2091966;28;673;-55
2022/06/10 03:58:42;;;;;;;;;;;;;;;22.66;47.27;101498.19;2091973;28;910;-55
2022/06/10 03:59:42;;;;;;;;;;;;;;;22.67;47.29;101491.81;2092011;28;766;-55
2022/06/10 04:00:43;;;;;;;;;;;;;;;22.67;47.34;101499.91;2091947;28;969;-55
2022/06/10 04:01:44;;;;;;;;;;;;;;;22.68;47.10;101503.53;2084453;28;2621;-55
2022/06/10 04:02:44;;;;;;;;;;;;;;;23.72;44.87;101503.63;2091314;28;1005;-55
2022/06/10 04:03:44;;;;;;;;;;;;;;;24.54;42.39;101496.97;2091919;28;981;-54
2022/06/10 04:04:45;;;;;;;;;;;;;;;25.12;40.76;101499.13;2091206;28;643;-53
2022/06/10 04:05:45;;;;;;;;;;;;;;;25.43;40.21;101503.22;2091309;28;843;-52
2022/06/10 04:06:45;;;;;;;;;;;;;;;25.78;39.37;101490.88;2091890;28;823;-52
2022/06/10 04:07:46;;;;;;;;;;;;;;;26.08;39.15;101502.16;2091789;28;1898;-52
2022/06/10 04:08:46;;;;;;;;;;;;;;;26.27;38.72;101493.19;2091888;28;957;-52
2022/06/10 04:09:46;;;;;;;;;;;;;;;26.49;37.57;101490.31;2091876;28;815;-52
2022/06/10 04:10:46;;;;;;;;;;;;;;;26.77;37.31;101495.28;2091848;28;977;-52
2022/06/10 04:11:46;;;;;;;;;;;;;;;26.97;36.57;101493.44;2091853;28;726;-53
2022/06/10 04:12:47;;;;;;;;;;;;;;;27.10;36.41;101490.06;2091175;28;821;-54
2022/06/10 04:13:47;;;;;;;;;;;;;;;27.10;36.48;101495.50;2091388;28;852;-54
2022/06/10 04:14:47;;;;;;;;;;;;;;;27.29;35.96;101485.47;2091800;28;1032;-54
2022/06/10 04:15:47;;;;;;;;;;;;;;;27.47;35.62;101488.19;2091866;28;929;-54
2022/06/10 04:16:48;;;;;;;;;;;;;;;27.63;35.20;101491.88;2091148;28;969;-54
2022/06/10 04:17:49;;;;;;;;;;;;;;;27.86;34.82;101489.75;2091238;28;855;-54
2022/06/10 04:18:49;;;;;;;;;;;;;;;28.01;34.32;101484.44;2091344;28;2831;-54
2022/06/10 04:19:49;;;;;;;;;;;;;;;28.31;34.46;101480.97;2091778;28;925;-54
2022/06/10 04:20:50;;;;;;;;;;;;;;;28.48;33.54;101483.63;2091813;28;953;-53
2022/06/10 04:21:50;;;;;;;;;;;;;;;28.47;33.81;101484.59;2091796;28;850;-54
2022/06/10 04:22:50;;;;;;;;;;;;;;;28.66;33.41;101480.81;2082820;28;902;-54
2022/06/10 04:23:50;;;;;;;;;;;;;;;28.84;33.31;101485.22;2082855;28;815;-54
2022/06/10 04:24:50;;;;;;;;;;;;;;;29.10;32.62;101482.78;2082875;28;958;-54
2022/06/10 04:25:50;;;;;;;;;;;;;;;29.58;31.92;101489.94;2091660;28;776;-54
2022/06/10 04:26:51;;;;;;;;;;;;;;;29.88;31.16;101491.72;2091725;28;965;-55
2022/06/10 04:27:52;;;;;;;;;;;;;;;29.77;31.39;101483.34;2091502;28;1906;-54
2022/06/10 04:28:52;;;;;;;;;;;;;;;30.02;31.14;101486.31;2091731;28;767;-54
2022/06/10 04:29:52;;;;;;;;;;;;;;;30.24;31.02;101479.44;2091686;28;863;-54
2022/06/10 04:30:52;;;;;;;;;;;;;;;30.39;30.61;101485.75;2091714;28;1021;-55
2022/06/10 04:31:53;;;;;;;;;;;;;;;30.64;30.36;101486.00;2091680;28;838;-54
2022/06/10 04:32:53;;;;;;;;;;;;;;;30.58;30.08;101487.31;2091701;28;767;-55
2022/06/10 04:33:53;;;;;;;;;;;;;;;30.78;29.59;101483.22;2091665;28;767;-54
2022/06/10 04:34:54;;;;;;;;;;;;;;;30.69;29.68;101484.72;2097805;28;2388;-54
2022/06/10 04:35:54;;;;;;;;;;;;;;;30.89;29.42;101488.00;2099929;28;846;-54
2022/06/10 04:36:54;;;;;;;;;;;;;;;30.94;29.09;101491.25;2099908;28;1020;-54
2022/06/10 04:37:55;;;;;;;;;;;;;;;31.04;28.97;101483.31;2099810;28;1160;-54
2022/06/10 04:38:56;;;;;;;;;;;;;;;31.03;29.07;101481.56;2099863;28;986;-54
2022/06/10 04:39:56;;;;;;;;;;;;;;;30.90;29.14;101489.75;2099852;28;985;-54
2022/06/10 04:40:56;;;;;;;;;;;;;;;31.03;29.04;101489.78;2099896;28;1127;-54
2022/06/10 04:41:56;;;;;;;;;;;;;;;31.24;28.91;101492.03;2099908;28;845;-54
2022/06/10 04:42:57;;;;;;;;;;;;;;;31.50;28.37;101495.72;2099933;28;834;-54
2022/06/10 04:43:57;;;;;;;;;;;;;;;31.55;28.45;101493.50;2090929;28;1236;-54
2022/06/10 04:44:57;;;;;;;;;;;;;;;31.52;28.34;101490.97;2091006;28;1016;-55
2022/06/10 04:45:57;;;;;;;;;;;;;;;31.37;28.26;101492.94;2099770;28;759;-54
2022/06/10 04:46:58;;;;;;;;;;;;;;;31.61;28.33;101495.81;2099901;28;1949;-54
2022/06/10 04:47:58;;;;;;;;;;;;;;;31.81;27.62;101492.66;2099866;28;831;-54
2022/06/10 04:48:59;;;;;;;;;;;;;;;31.76;27.50;101487.53;2090957;28;1194;-54
2022/06/10 04:50:01;;;;;;;;;;;;;;;31.63;28.10;101499.31;2090976;28;815;-54
2022/06/10 04:51:01;;;;;;;;;;;;;;;31.85;27.80;101492.34;2099812;28;784;-55
2022/06/10 04:52:04;;;;;;;;;;;;;;;31.95;27.49;101495.28;2088821;28;2506;-54
2022/06/10 04:53:04;;;;;;;;;;;;;;;31.69;27.66;101491.66;2082997;28;898;-54
2022/06/10 04:54:05;;;;;;;;;;;;;;;31.64;28.11;101498.31;2091497;28;958;-54
2022/06/10 04:55:06;;;;;;;;;;;;;;;31.64;27.89;101492.00;2091514;28;791;-55
2022/06/10 04:56:06;;;;;;;;;;;;;;;31.94;27.61;101491.69;2091518;28;779;-55
2022/06/10 04:57:06;;;;;;;;;;;;;;;31.86;27.61;101496.84;2091531;28;764;-54
2022/06/10 04:58:07;;;;;;;;;;;;;;;31.63;27.99;101492.97;2091526;28;819;-54
2022/06/10 04:59:07;;;;;;;;;;;;;;;31.50;27.96;101496.56;2091509;28;961;-54
2022/06/10 05:00:08;;;;;;;;;;;;;;;31.70;27.33;101504.34;2091501;28;969;-55
2022/06/10 05:01:08;;;;;;;;;;;;;;;31.76;27.88;101499.38;2091437;28;1122;-55
2022/06/10 05:02:09;;;;;;;;;;;;;;;32.18;27.10;101498.22;2091257;28;950;-55
2022/06/10 05:03:10;;;;;;;;;;;;;;;32.08;27.08;101498.03;2082647;28;1599;-54
2022/06/10 05:04:10;;;;;;;;;;;;;;;32.19;26.94;101494.50;2082666;28;845;-55
2022/06/10 05:05:10;;;;;;;;;;;;;;;32.32;26.66;101499.97;2091474;28;678;-55
2022/06/10 05:06:10;;;;;;;;;;;;;;;31.98;27.35;101494.19;2091447;28;846;-54
2022/06/10 05:07:11;;;;;;;;;;;;;;;32.13;27.24;101492.19;2091368;28;1918;-54
2022/06/10 05:08:12;;;;;;;;;;;;;;;32.08;26.78;101485.19;2091454;28;755;-54
2022/06/10 05:09:12;;;;;;;;;;;;;;;32.08;27.15;101495.28;2091430;28;1044;-54
2022/06/10 05:10:12;;;;;;;;;;;;;;;32.23;27.05;101490.53;2090629;28;2450;-54
2022/06/10 05:11:14;;;;;;;;;;;;;;;32.53;26.28;101486.53;2091417;28;795;-54
2022/06/10 05:12:14;;;;;;;;;;;;;;;32.34;26.84;101487.91;2091415;28;799;-54
2022/06/10 05:13:16;;;;;;;;;;;;;;;32.27;26.90;101492.06;2091384;28;651;-54
2022/06/10 05:14:17;;;;;;;;;;;;;;;32.54;26.45;101482.78;2091428;28;800;-55
2022/06/10 05:15:20;;;;;;;;;;;;;;;32.61;26.07;101475.00;2091521;28;776;-55
2022/06/10 05:16:20;;;;;;;;;;;;;;;32.64;26.35;101480.25;2091416;28;783;-55
2022/06/10 05:17:20;;;;;;;;;;;;;;;32.43;26.51;101471.75;2091424;28;1005;-54
2022/06/10 05:18:22;;;;;;;;;;;;;;;32.35;26.68;101472.34;2091448;28;803;-55
2022/06/10 05:19:22;;;;;;;;;;;;;;;32.27;27.03;101472.88;2091394;28;906;-54
2022/06/10 05:20:24;;;;;;;;;;;;;;;32.47;26.24;101473.28;2091375;28;795;-55
2022/06/10 05:21:24;;;;;;;;;;;;;;;32.35;26.81;101473.22;2091282;28;1763;-55
2022/06/10 05:22:25;;;;;;;;;;;;;;;32.48;26.41;101477.75;2091388;28;845;-55
2022/06/10 05:23:25;;;;;;;;;;;;;;;32.36;26.69;101477.72;2091368;28;969;-54
2022/06/10 05:24:25;;;;;;;;;;;;;;;32.41;26.56;101481.94;2082476;28;2282;-55
2022/06/10 05:25:26;;;;;;;;;;;;;;;32.29;26.71;101483.75;2082555;28;819;-55
2022/06/10 05:26:29;;;;;;;;;;;;;;;32.40;26.62;101477.47;2094915;28;2721;-55
2022/06/10 05:27:29;;;;;;;;;;;;;;;32.36;26.73;101485.94;2095101;28;2407;-54
2022/06/10 05:28:29;;;;;;;;;;;;;;;32.44;26.68;101479.88;2092938;28;3175;-55
2022/06/10 05:29:30;;;;;;;;;;;;;;;32.33;26.64;101482.53;2091377;28;1032;-55
2022/06/10 05:30:32;;;;;;;;;;;;;;;32.36;26.57;101482.31;2091328;28;822;-54
2022/06/10 05:31:32;;;;;;;;;;;;;;;32.45;26.68;101486.22;2091359;28;750;-55
2022/06/10 05:32:32;;;;;;;;;;;;;;;32.59;26.39;101487.94;2091305;28;905;-53
2022/06/10 05:34:51;;;;;;;;;;;;;;;32.53;26.45;101492.00;2086832;28;1305;-54
2022/06/10 05:35:51;;;;;;;;;;;;;;;32.74;26.07;101485.91;2099674;28;811;-54
2022/06/10 05:36:52;;;;;;;;;;;;;;;32.71;25.77;101488.88;2099666;28;973;-54
2022/06/10 05:37:52;;;;;;;;;;;;;;;32.61;26.37;101492.31;2099607;28;661;-55
2022/06/10 05:38:52;;;;;;;;;;;;;;;32.51;26.52;101491.25;2098275;28;1248;-55
2022/06/10 05:39:52;;;;;;;;;;;;;;;32.55;26.50;101483.69;2091308;28;991;-55
2022/06/10 05:42:04;;;;;;;;;;;;;;;32.74;26.14;101485.91;2091372;28;775;-55
2022/06/10 05:42:13;;;;;;;;;;;;;;;32.77;26.10;101493.91;2091168;28;1423;-54
2022/06/10 05:43:13;;;;;;;;;;;;;;;32.88;25.69;101495.84;2082382;28;957;-54
2022/06/10 05:44:13;;;;;;;;;;;;;;;32.81;25.90;101495.41;2074225;28;1224;-54
2022/06/10 05:45:17;;;;;;;;;;;;;;;32.60;26.33;101493.28;2083466;28;2842;-54
2022/06/10 05:46:17;;;;;;;;;;;;;;;32.80;26.07;101489.03;2091272;28;914;-55
2022/06/10 05:47:28;;;;;;;;;;;;;;;32.75;25.96;101491.25;2090479;28;2558;-54
2022/06/10 05:48:28;;;;;;;;;;;;;;;32.75;26.55;101493.13;2089094;28;2914;-54
2022/06/10 05:49:28;;;;;;;;;;;;;;;32.68;26.15;101492.72;2089156;28;2835;-55
2022/06/10 05:50:34;;;;;;;;;;;;;;;32.89;25.93;101494.84;2099379;28;925;-54
2022/06/10 05:51:35;;;;;;;;;;;;;;;32.46;26.59;101490.72;2104644;28;1210;-54
2022/06/10 05:52:35;;;;;;;;;;;;;;;32.32;26.64;101494.50;2107801;28;973;-54
2022/06/10 05:53:35;;;;;;;;;;;;;;;32.61;26.36;101495.06;2098245;28;2798;-55
2022/06/10 05:54:36;;;;;;;;;;;;;;;32.65;26.11;101493.84;2091139;28;1028;-54
2022/06/10 05:55:37;;;;;;;;;;;;;;;32.52;26.41;101498.47;2091311;28;799;-54
2022/06/10 05:56:37;;;;;;;;;;;;;;;32.66;25.69;101491.97;2091170;28;1025;-55